sensor_id;sensor_type;location;lat;lon;timestamp;pressure;altitude;pressure_sealevel;temperature;humidity
62402;BME280;48440;51.224;22.506;2023-09-07T00:01:33;100119.03;;;17.56;69.43
62402;BME280;48440;51.224;22.506;2023-09-07T00:04:04;100118.75;;;17.58;69.53
62402;BME280;48440;51.224;22.506;2023-09-07T00:06:32;100121.25;;;17.54;69.82
62402;BME280;48440;51.224;22.506;2023-09-07T00:08:57;100120.44;;;17.54;69.70
62402;BME280;48440;51.224;22.506;2023-09-07T00:11:23;100115.22;;;17.52;70.09
62402;BME280;48440;51.224;22.506;2023-09-07T00:13:49;100120.44;;;17.54;69.81
62402;BME280;48440;51.224;22.506;2023-09-07T00:16:15;100111.91;;;17.55;69.64
62402;BME280;48440;51.224;22.506;2023-09-07T00:18:44;100122.63;;;17.52;69.62
62402;BME280;48440;51.224;22.506;2023-09-07T00:21:09;100125.09;;;17.53;69.62
62402;BME280;48440;51.224;22.506;2023-09-07T00:23:37;100120.16;;;17.50;69.62
62402;BME280;48440;51.224;22.506;2023-09-07T00:28:53;100123.72;;;17.51;69.30
62402;BME280;48440;51.224;22.506;2023-09-07T00:31:23;100122.91;;;17.50;69.47
62402;BME280;48440;51.224;22.506;2023-09-07T00:33:48;100128.66;;;17.49;69.58
62402;BME280;48440;51.224;22.506;2023-09-07T00:36:14;100122.09;;;17.50;69.46
62402;BME280;48440;51.224;22.506;2023-09-07T00:38:47;100117.69;;;17.49;69.22
62402;BME280;48440;51.224;22.506;2023-09-07T00:41:21;100121.28;;;17.44;69.30
62402;BME280;48440;51.224;22.506;2023-09-07T00:43:49;100114.41;;;17.42;69.31
62402;BME280;48440;51.224;22.506;2023-09-07T00:49:28;100126.19;;;17.47;68.90
62402;BME280;48440;51.224;22.506;2023-09-07T00:52:00;100122.91;;;17.45;68.83
62402;BME280;48440;51.224;22.506;2023-09-07T00:54:38;100125.94;;;17.44;68.57
62402;BME280;48440;51.224;22.506;2023-09-07T00:57:18;100128.97;;;17.42;68.84
62402;BME280;48440;51.224;22.506;2023-09-07T00:59:45;100117.75;;;17.39;68.91
62402;BME280;48440;51.224;22.506;2023-09-07T01:02:27;100124.34;;;17.38;68.75
62402;BME280;48440;51.224;22.506;2023-09-07T01:04:54;100119.94;;;17.37;68.62
62402;BME280;48440;51.224;22.506;2023-09-07T01:07:26;100123.53;;;17.32;68.88
62402;BME280;48440;51.224;22.506;2023-09-07T01:09:57;100117.22;;;17.32;69.02
62402;BME280;48440;51.224;22.506;2023-09-07T01:12:23;100121.63;;;17.27;68.80
62402;BME280;48440;51.224;22.506;2023-09-07T01:14:48;100124.63;;;17.26;68.85
62402;BME280;48440;51.224;22.506;2023-09-07T01:17:14;100117.25;;;17.21;68.99
62402;BME280;48440;51.224;22.506;2023-09-07T01:19:41;100118.34;;;17.20;68.99
62402;BME280;48440;51.224;22.506;2023-09-07T01:22:08;100114.50;;;17.21;68.88
62402;BME280;48440;51.224;22.506;2023-09-07T01:24:35;100106.88;;;17.13;68.98
62402;BME280;48440;51.224;22.506;2023-09-07T01:27:03;100114.81;;;17.15;69.32
62402;BME280;48440;51.224;22.506;2023-09-07T01:29:29;100107.69;;;17.14;69.41
62402;BME280;48440;51.224;22.506;2023-09-07T01:31:56;100115.63;;;17.10;68.89
62402;BME280;48440;51.224;22.506;2023-09-07T01:34:23;100105.50;;;17.06;69.16
62402;BME280;48440;51.224;22.506;2023-09-07T01:36:49;100106.31;;;17.06;68.91
62402;BME280;48440;51.224;22.506;2023-09-07T01:39:15;100109.88;;;17.07;69.17
62402;BME280;48440;51.224;22.506;2023-09-07T01:41:42;100108.78;;;17.03;69.42
62402;BME280;48440;51.224;22.506;2023-09-07T01:44:08;100110.44;;;17.04;69.36
62402;BME280;48440;51.224;22.506;2023-09-07T01:46:33;100108.78;;;17.03;69.71
62402;BME280;48440;51.224;22.506;2023-09-07T01:49:01;100111.81;;;17.01;69.42
62402;BME280;48440;51.224;22.506;2023-09-07T01:51:27;100106.88;;;16.98;69.71
62402;BME280;48440;51.224;22.506;2023-09-07T01:53:54;100109.91;;;16.96;70.20
62402;BME280;48440;51.224;22.506;2023-09-07T01:56:19;100109.06;;;16.96;69.94
62402;BME280;48440;51.224;22.506;2023-09-07T01:58:45;100105.25;;;16.97;69.92
62402;BME280;48440;51.224;22.506;2023-09-07T02:01:21;100108.53;;;16.94;69.95
62402;BME280;48440;51.224;22.506;2023-09-07T02:03:47;100109.63;;;16.93;69.92
62402;BME280;48440;51.224;22.506;2023-09-07T02:06:14;100109.34;;;16.94;69.71
62402;BME280;48440;51.224;22.506;2023-09-07T02:08:39;100110.47;;;16.88;69.77
62402;BME280;48440;51.224;22.506;2023-09-07T02:11:06;100105.28;;;16.82;69.91
62402;BME280;48440;51.224;22.506;2023-09-07T02:13:31;100108.28;;;16.80;69.79
62402;BME280;48440;51.224;22.506;2023-09-07T02:15:57;100106.38;;;16.76;69.99
62402;BME280;48440;51.224;22.506;2023-09-07T02:18:23;100113.50;;;16.77;69.81
62402;BME280;48440;51.224;22.506;2023-09-07T02:20:48;100106.38;;;16.76;69.89
62402;BME280;48440;51.224;22.506;2023-09-07T02:23:14;100109.94;;;16.71;70.12
62402;BME280;48440;51.224;22.506;2023-09-07T02:25:43;100111.31;;;16.69;69.84
62402;BME280;48440;51.224;22.506;2023-09-07T02:28:08;100112.41;;;16.68;69.98
62402;BME280;48440;51.224;22.506;2023-09-07T02:30:34;100106.91;;;16.68;69.98
62402;BME280;48440;51.224;22.506;2023-09-07T02:33:00;100105.81;;;16.63;70.13
62402;BME280;48440;51.224;22.506;2023-09-07T02:35:26;100102.53;;;16.61;70.17
62402;BME280;48440;51.224;22.506;2023-09-07T02:37:51;100106.91;;;16.57;70.08
62402;BME280;48440;51.224;22.506;2023-09-07T02:40:18;100103.34;;;16.57;70.10
62402;BME280;48440;51.224;22.506;2023-09-07T02:42:43;100101.97;;;16.54;70.00
62402;BME280;48440;51.224;22.506;2023-09-07T02:45:11;100104.16;;;16.47;70.08
62402;BME280;48440;51.224;22.506;2023-09-07T02:47:38;100110.75;;;16.46;70.24
62402;BME280;48440;51.224;22.506;2023-09-07T02:50:05;100113.47;;;16.41;70.11
62402;BME280;48440;51.224;22.506;2023-09-07T02:52:31;100111.56;;;16.42;70.33
62402;BME280;48440;51.224;22.506;2023-09-07T02:54:57;100106.34;;;16.40;70.37
62402;BME280;48440;51.224;22.506;2023-09-07T02:57:25;100101.69;;;16.41;70.62
62402;BME280;48440;51.224;22.506;2023-09-07T02:59:52;100104.16;;;16.37;70.28
62402;BME280;48440;51.224;22.506;2023-09-07T03:02:18;100100.63;;;16.32;70.92
62402;BME280;48440;51.224;22.506;2023-09-07T03:04:44;100098.69;;;16.32;70.88
62402;BME280;48440;51.224;22.506;2023-09-07T03:07:09;100110.19;;;16.34;70.81
62402;BME280;48440;51.224;22.506;2023-09-07T03:09:35;100100.63;;;16.37;70.80
62402;BME280;48440;51.224;22.506;2023-09-07T03:12:01;100112.09;;;16.39;71.05
62402;BME280;48440;51.224;22.506;2023-09-07T03:14:26;100114.28;;;16.42;70.77
62402;BME280;48440;51.224;22.506;2023-09-07T03:16:52;100111.56;;;16.42;70.92
62402;BME280;48440;51.224;22.506;2023-09-07T03:19:19;100112.38;;;16.42;71.32
62402;BME280;48440;51.224;22.506;2023-09-07T03:21:45;100116.22;;;16.36;71.28
62402;BME280;48440;51.224;22.506;2023-09-07T03:24:11;100117.56;;;16.39;71.15
62402;BME280;48440;51.224;22.506;2023-09-07T03:26:39;100124.16;;;16.38;71.09
62402;BME280;48440;51.224;22.506;2023-09-07T03:29:05;100116.50;;;16.35;71.11
62402;BME280;48440;51.224;22.506;2023-09-07T03:31:31;100119.78;;;16.37;70.97
62402;BME280;48440;51.224;22.506;2023-09-07T03:33:57;100128.28;;;16.35;71.33
62402;BME280;48440;51.224;22.506;2023-09-07T03:36:22;100122.22;;;16.38;71.35
62402;BME280;48440;51.224;22.506;2023-09-07T03:38:48;100125.81;;;16.34;71.73
62402;BME280;48440;51.224;22.506;2023-09-07T03:41:16;100125.53;;;16.25;71.43
62402;BME280;48440;51.224;22.506;2023-09-07T03:43:45;100133.44;;;16.21;71.24
62402;BME280;48440;51.224;22.506;2023-09-07T03:46:12;100129.09;;;16.25;71.42
62402;BME280;48440;51.224;22.506;2023-09-07T03:48:38;100134.81;;;16.19;71.83
62402;BME280;48440;51.224;22.506;2023-09-07T03:51:20;100137.56;;;16.24;71.74
62402;BME280;48440;51.224;22.506;2023-09-07T03:53:49;100134.84;;;16.24;71.64
62402;BME280;48440;51.224;22.506;2023-09-07T03:56:14;100136.47;;;16.20;71.53
62402;BME280;48440;51.224;22.506;2023-09-07T03:58:39;100138.94;;;16.21;71.86
62402;BME280;48440;51.224;22.506;2023-09-07T04:01:06;100138.66;;;16.23;71.79
62402;BME280;48440;51.224;22.506;2023-09-07T04:03:31;100143.31;;;16.27;71.68
62402;BME280;48440;51.224;22.506;2023-09-07T04:05:57;100134.84;;;16.29;71.60
62402;BME280;48440;51.224;22.506;2023-09-07T04:08:22;100144.69;;;16.25;71.98
62402;BME280;48440;51.224;22.506;2023-09-07T04:10:48;100142.75;;;16.20;71.82
62402;BME280;48440;51.224;22.506;2023-09-07T04:13:15;100143.59;;;16.21;71.46
62402;BME280;48440;51.224;22.506;2023-09-07T04:15:44;100146.03;;;16.17;71.67
62402;BME280;48440;51.224;22.506;2023-09-07T04:18:12;100134.81;;;16.19;71.58
62402;BME280;48440;51.224;22.506;2023-09-07T04:20:46;100146.88;;;16.23;71.52
62402;BME280;48440;51.224;22.506;2023-09-07T04:23:11;100141.13;;;16.24;71.53
62402;BME280;48440;51.224;22.506;2023-09-07T04:25:37;100144.41;;;16.26;71.80
62402;BME280;48440;51.224;22.506;2023-09-07T04:28:05;100143.88;;;16.29;71.60
62402;BME280;48440;51.224;22.506;2023-09-07T04:30:32;100143.88;;;16.24;71.88
62402;BME280;48440;51.224;22.506;2023-09-07T04:32:58;100144.41;;;16.26;71.50
62402;BME280;48440;51.224;22.506;2023-09-07T04:35:28;100150.72;;;16.27;71.62
62402;BME280;48440;51.224;22.506;2023-09-07T04:37:55;100144.16;;;16.28;72.16
62402;BME280;48440;51.224;22.506;2023-09-07T04:40:36;100146.34;;;16.31;72.28
62402;BME280;48440;51.224;22.506;2023-09-07T04:43:13;100146.63;;;16.35;71.67
62402;BME280;48440;51.224;22.506;2023-09-07T04:45:57;100149.91;;;16.37;71.80
62402;BME280;48440;51.224;22.506;2023-09-07T04:48:23;100155.41;;;16.37;72.00
62402;BME280;48440;51.224;22.506;2023-09-07T04:50:57;100148.28;;;16.36;72.12
62402;BME280;48440;51.224;22.506;2023-09-07T04:53:22;100151.25;;;16.39;71.89
62402;BME280;48440;51.224;22.506;2023-09-07T04:55:50;100152.34;;;16.38;71.46
62402;BME280;48440;51.224;22.506;2023-09-07T04:58:23;100147.97;;;16.42;71.20
62402;BME280;48440;51.224;22.506;2023-09-07T05:03:58;100156.78;;;16.54;70.93
62402;BME280;48440;51.224;22.506;2023-09-07T05:06:24;100150.47;;;16.59;71.89
62402;BME280;48440;51.224;22.506;2023-09-07T05:08:51;100155.69;;;16.66;71.97
62402;BME280;48440;51.224;22.506;2023-09-07T05:11:17;100162.81;;;16.72;71.78
62402;BME280;48440;51.224;22.506;2023-09-07T05:13:43;100163.94;;;16.76;71.81
62402;BME280;48440;51.224;22.506;2023-09-07T05:16:08;100166.13;;;16.79;71.95
62402;BME280;48440;51.224;22.506;2023-09-07T05:18:34;100161.19;;;16.86;71.63
62402;BME280;48440;51.224;22.506;2023-09-07T05:20:59;100164.47;;;16.88;71.56
62402;BME280;48440;51.224;22.506;2023-09-07T05:23:25;100155.69;;;16.91;71.82
62402;BME280;48440;51.224;22.506;2023-09-07T05:25:53;100163.63;;;16.98;71.24
62402;BME280;48440;51.224;22.506;2023-09-07T05:28:20;100169.66;;;17.05;71.37
62402;BME280;48440;51.224;22.506;2023-09-07T05:30:46;100158.41;;;17.11;70.99
62402;BME280;48440;51.224;22.506;2023-09-07T05:33:15;100168.81;;;17.19;70.79
62402;BME280;48440;51.224;22.506;2023-09-07T05:35:41;100169.63;;;17.30;70.83
62402;BME280;48440;51.224;22.506;2023-09-07T05:38:07;100172.34;;;17.40;70.13
62402;BME280;48440;51.224;22.506;2023-09-07T05:40:37;100173.09;;;17.56;70.20
62402;BME280;48440;51.224;22.506;2023-09-07T05:43:03;100173.34;;;17.70;69.60
62402;BME280;48440;51.224;22.506;2023-09-07T05:45:30;100171.66;;;17.84;69.08
62402;BME280;48440;51.224;22.506;2023-09-07T05:47:58;100180.09;;;17.97;69.92
62402;BME280;48440;51.224;22.506;2023-09-07T05:51:03;100175.59;;;18.17;69.15
62402;BME280;48440;51.224;22.506;2023-09-07T05:53:29;100177.69;;;18.35;69.05
62402;BME280;48440;51.224;22.506;2023-09-07T05:55:55;100176.47;;;18.51;68.14
62402;BME280;48440;51.224;22.506;2023-09-07T05:58:22;100175.00;;;18.69;68.13
62402;BME280;48440;51.224;22.506;2023-09-07T06:00:49;100173.47;;;18.87;67.36
62402;BME280;48440;51.224;22.506;2023-09-07T06:03:18;100181.25;;;19.09;66.37
62402;BME280;48440;51.224;22.506;2023-09-07T06:05:45;100180.75;;;19.30;65.91
62402;BME280;48440;51.224;22.506;2023-09-07T06:08:17;100190.91;;;19.59;64.76
62402;BME280;48440;51.224;22.506;2023-09-07T06:10:43;100192.59;;;19.79;64.64
62402;BME280;48440;51.224;22.506;2023-09-07T06:13:09;100190.94;;;20.02;63.80
62402;BME280;48440;51.224;22.506;2023-09-07T06:15:35;100187.22;;;20.30;62.99
62402;BME280;48440;51.224;22.506;2023-09-07T06:18:00;100184.75;;;20.52;62.28
62402;BME280;48440;51.224;22.506;2023-09-07T06:20:26;100172.56;;;20.72;61.96
62402;BME280;48440;51.224;22.506;2023-09-07T06:22:52;100175.13;;;21.01;61.16
62402;BME280;48440;51.224;22.506;2023-09-07T06:25:17;100174.56;;;21.31;60.19
62402;BME280;48440;51.224;22.506;2023-09-07T06:27:44;100185.53;;;21.64;59.56
62402;BME280;48440;51.224;22.506;2023-09-07T06:30:09;100189.31;;;21.95;58.48
62402;BME280;48440;51.224;22.506;2023-09-07T06:32:36;100190.00;;;22.28;57.88
62402;BME280;48440;51.224;22.506;2023-09-07T06:35:01;100187.84;;;22.61;56.69
62402;BME280;48440;51.224;22.506;2023-09-07T06:37:32;100193.97;;;22.94;55.64
62402;BME280;48440;51.224;22.506;2023-09-07T06:40:02;100192.19;;;23.21;53.68
62402;BME280;48440;51.224;22.506;2023-09-07T06:42:29;100198.16;;;23.37;53.04
62402;BME280;48440;51.224;22.506;2023-09-07T06:48:18;100196.44;;;23.89;51.74
62402;BME280;48440;51.224;22.506;2023-09-07T06:51:27;100204.50;;;24.25;50.74
62402;BME280;48440;51.224;22.506;2023-09-07T06:53:54;100202.25;;;24.35;51.04
62402;BME280;48440;51.224;22.506;2023-09-07T06:56:20;100196.56;;;24.58;50.89
62402;BME280;48440;51.224;22.506;2023-09-07T06:58:46;100195.88;;;24.69;51.13
62402;BME280;48440;51.224;22.506;2023-09-07T07:01:12;100202.91;;;24.93;51.46
62402;BME280;48440;51.224;22.506;2023-09-07T07:03:37;100208.28;;;24.98;50.26
62402;BME280;48440;51.224;22.506;2023-09-07T07:06:03;100204.97;;;25.22;49.74
62402;BME280;48440;51.224;22.506;2023-09-07T07:08:29;100207.09;;;25.33;47.87
62402;BME280;48440;51.224;22.506;2023-09-07T07:10:54;100208.81;;;25.47;48.23
62402;BME280;48440;51.224;22.506;2023-09-07T07:13:20;100208.31;;;25.71;47.24
62402;BME280;48440;51.224;22.506;2023-09-07T07:15:46;100210.38;;;25.74;47.23
62402;BME280;48440;51.224;22.506;2023-09-07T07:18:12;100215.59;;;25.84;47.67
62402;BME280;48440;51.224;22.506;2023-09-07T07:20:39;100214.09;;;25.86;47.87
62402;BME280;48440;51.224;22.506;2023-09-07T07:23:06;100214.63;;;26.09;47.63
62402;BME280;48440;51.224;22.506;2023-09-07T07:25:34;100210.22;;;26.38;46.68
62402;BME280;48440;51.224;22.506;2023-09-07T07:28:01;100221.69;;;26.57;46.29
62402;BME280;48440;51.224;22.506;2023-09-07T07:30:40;100224.41;;;26.65;45.00
62402;BME280;48440;51.224;22.506;2023-09-07T07:33:06;100221.53;;;26.53;45.43
62402;BME280;48440;51.224;22.506;2023-09-07T07:35:32;100215.66;;;26.55;45.42
62402;BME280;48440;51.224;22.506;2023-09-07T07:37:58;100217.75;;;26.58;45.61
62402;BME280;48440;51.224;22.506;2023-09-07T07:40:24;100219.53;;;26.62;44.05
62402;BME280;48440;51.224;22.506;2023-09-07T07:42:52;100214.41;;;26.85;44.67
62402;BME280;48440;51.224;22.506;2023-09-07T07:45:18;100214.19;;;26.90;44.14
62402;BME280;48440;51.224;22.506;2023-09-07T07:47:49;100211.13;;;27.04;43.96
62402;BME280;48440;51.224;22.506;2023-09-07T07:50:15;100219.22;;;27.18;44.03
62402;BME280;48440;51.224;22.506;2023-09-07T07:52:40;100208.91;;;27.30;44.42
62402;BME280;48440;51.224;22.506;2023-09-07T07:55:06;100210.34;;;27.49;43.31
62402;BME280;48440;51.224;22.506;2023-09-07T07:57:31;100219.91;;;27.60;43.15
62402;BME280;48440;51.224;22.506;2023-09-07T07:59:57;100228.28;;;27.72;42.48
62402;BME280;48440;51.224;22.506;2023-09-07T08:02:23;100214.34;;;27.72;43.86
62402;BME280;48440;51.224;22.506;2023-09-07T08:04:48;100218.88;;;27.89;43.03
62402;BME280;48440;51.224;22.506;2023-09-07T08:07:14;100222.25;;;27.94;40.99
62402;BME280;48440;51.224;22.506;2023-09-07T08:09:39;100216.44;;;27.99;41.19
62402;BME280;48440;51.224;22.506;2023-09-07T08:12:05;100230.16;;;28.04;42.00
62402;BME280;48440;51.224;22.506;2023-09-07T08:14:31;100224.66;;;28.08;41.45
62402;BME280;48440;51.224;22.506;2023-09-07T08:16:57;100232.16;;;28.28;41.74
62402;BME280;48440;51.224;22.506;2023-09-07T08:19:23;100228.97;;;28.42;40.73
62402;BME280;48440;51.224;22.506;2023-09-07T08:21:49;100228.75;;;28.35;40.94
62402;BME280;48440;51.224;22.506;2023-09-07T08:24:15;100224.47;;;28.25;40.25
62402;BME280;48440;51.224;22.506;2023-09-07T08:26:40;100221.53;;;28.46;41.32
62402;BME280;48440;51.224;22.506;2023-09-07T08:29:07;100231.06;;;28.45;40.71
62402;BME280;48440;51.224;22.506;2023-09-07T08:31:35;100228.97;;;28.54;39.89
62402;BME280;48440;51.224;22.506;2023-09-07T08:34:01;100222.03;;;28.64;39.79
62402;BME280;48440;51.224;22.506;2023-09-07T08:36:30;100226.91;;;28.79;40.34
62402;BME280;48440;51.224;22.506;2023-09-07T08:39:03;100225.50;;;28.85;40.70
62402;BME280;48440;51.224;22.506;2023-09-07T08:41:40;100228.13;;;28.94;40.52
62402;BME280;48440;51.224;22.506;2023-09-07T08:44:12;100229.16;;;29.01;39.64
62402;BME280;48440;51.224;22.506;2023-09-07T08:46:40;100231.03;;;28.97;40.05
62402;BME280;48440;51.224;22.506;2023-09-07T08:49:06;100236.47;;;29.06;40.57
62402;BME280;48440;51.224;22.506;2023-09-07T08:51:32;100235.31;;;29.07;39.93
62402;BME280;48440;51.224;22.506;2023-09-07T08:53:58;100244.31;;;29.00;39.56
62402;BME280;48440;51.224;22.506;2023-09-07T08:56:24;100243.25;;;29.05;39.77
62402;BME280;48440;51.224;22.506;2023-09-07T08:58:50;100232.25;;;29.12;38.93
62402;BME280;48440;51.224;22.506;2023-09-07T09:01:16;100240.81;;;29.19;38.92
62402;BME280;48440;51.224;22.506;2023-09-07T09:03:42;100235.69;;;29.21;39.37
62402;BME280;48440;51.224;22.506;2023-09-07T09:06:08;100235.25;;;29.19;39.81
62402;BME280;48440;51.224;22.506;2023-09-07T09:08:50;100238.94;;;29.23;39.66
62402;BME280;48440;51.224;22.506;2023-09-07T09:11:16;100234.44;;;29.19;39.72
62402;BME280;48440;51.224;22.506;2023-09-07T09:13:42;100237.00;;;29.12;39.32
62402;BME280;48440;51.224;22.506;2023-09-07T09:16:09;100243.72;;;29.23;39.67
62402;BME280;48440;51.224;22.506;2023-09-07T09:18:35;100232.44;;;29.19;39.59
62402;BME280;48440;51.224;22.506;2023-09-07T09:21:01;100237.06;;;29.27;39.33
62402;BME280;48440;51.224;22.506;2023-09-07T09:23:33;100233.31;;;29.35;39.29
62402;BME280;48440;51.224;22.506;2023-09-07T09:26:02;100237.47;;;29.42;39.39
62402;BME280;48440;51.224;22.506;2023-09-07T09:28:30;100226.28;;;29.42;38.35
62402;BME280;48440;51.224;22.506;2023-09-07T09:30:58;100232.69;;;29.42;38.84
62402;BME280;48440;51.224;22.506;2023-09-07T09:33:25;100227.19;;;29.46;39.27
62402;BME280;48440;51.224;22.506;2023-09-07T09:35:52;100230.34;;;29.44;38.44
62402;BME280;48440;51.224;22.506;2023-09-07T09:38:20;100231.69;;;29.34;39.00
62402;BME280;48440;51.224;22.506;2023-09-07T09:40:46;100232.28;;;29.28;39.22
62402;BME280;48440;51.224;22.506;2023-09-07T09:43:19;100237.88;;;29.28;38.72
62402;BME280;48440;51.224;22.506;2023-09-07T09:45:48;100234.13;;;29.36;39.14
62402;BME280;48440;51.224;22.506;2023-09-07T09:48:19;100230.06;;;29.33;38.38
62402;BME280;48440;51.224;22.506;2023-09-07T09:50:49;100235.03;;;29.40;38.29
62402;BME280;48440;51.224;22.506;2023-09-07T09:53:18;100227.47;;;29.41;37.73
62402;BME280;48440;51.224;22.506;2023-09-07T09:55:49;100229.09;;;29.42;38.22
62402;BME280;48440;51.224;22.506;2023-09-07T09:58:17;100227.34;;;29.37;38.41
62402;BME280;48440;51.224;22.506;2023-09-07T10:00:50;100224.19;;;29.38;38.65
62402;BME280;48440;51.224;22.506;2023-09-07T10:03:23;100227.72;;;29.35;38.37
62402;BME280;48440;51.224;22.506;2023-09-07T10:05:52;100225.81;;;29.39;38.63
62402;BME280;48440;51.224;22.506;2023-09-07T10:08:19;100228.81;;;29.47;38.37
62402;BME280;48440;51.224;22.506;2023-09-07T10:10:49;100229.28;;;29.49;38.43
62402;BME280;48440;51.224;22.506;2023-09-07T10:13:15;100229.28;;;29.49;37.65
62402;BME280;48440;51.224;22.506;2023-09-07T10:15:41;100221.63;;;29.46;37.30
62402;BME280;48440;51.224;22.506;2023-09-07T10:18:11;100221.38;;;29.38;37.50
62402;BME280;48440;51.224;22.506;2023-09-07T10:21:06;100217.34;;;29.36;38.48
62402;BME280;48440;51.224;22.506;2023-09-07T10:23:41;100219.63;;;29.46;38.89
62402;BME280;48440;51.224;22.506;2023-09-07T10:26:15;100211.75;;;29.36;38.25
62402;BME280;48440;51.224;22.506;2023-09-07T10:28:41;100213.53;;;29.28;37.96
62402;BME280;48440;51.224;22.506;2023-09-07T10:31:27;100220.09;;;29.20;37.93
62402;BME280;48440;51.224;22.506;2023-09-07T10:33:56;100222.44;;;29.18;38.52
62402;BME280;48440;51.224;22.506;2023-09-07T10:36:30;100211.25;;;29.18;38.27
62402;BME280;48440;51.224;22.506;2023-09-07T10:38:56;100212.06;;;29.19;38.54
62402;BME280;48440;51.224;22.506;2023-09-07T10:41:22;100216.09;;;28.78;39.18
62402;BME280;48440;51.224;22.506;2023-09-07T10:43:53;100218.88;;;28.25;39.05
62402;BME280;48440;51.224;22.506;2023-09-07T10:46:20;100218.28;;;27.83;40.51
62402;BME280;48440;51.224;22.506;2023-09-07T10:48:51;100219.09;;;27.59;40.47
62402;BME280;48440;51.224;22.506;2023-09-07T10:51:18;100214.47;;;27.30;42.31
62402;BME280;48440;51.224;22.506;2023-09-07T10:53:43;100216.97;;;27.11;42.73
62402;BME280;48440;51.224;22.506;2023-09-07T10:56:09;100218.88;;;27.19;43.46
62402;BME280;48440;51.224;22.506;2023-09-07T10:58:36;100210.72;;;27.14;43.20
62402;BME280;48440;51.224;22.506;2023-09-07T11:01:15;100214.44;;;27.18;42.23
62402;BME280;48440;51.224;22.506;2023-09-07T11:03:41;100211.69;;;27.30;41.94
62402;BME280;48440;51.224;22.506;2023-09-07T11:08:37;100213.69;;;27.42;42.19
62402;BME280;48440;51.224;22.506;2023-09-07T11:11:03;100207.44;;;27.57;42.35
62402;BME280;48440;51.224;22.506;2023-09-07T11:13:29;100202.72;;;27.70;42.96
62402;BME280;48440;51.224;22.506;2023-09-07T11:15:56;100204.94;;;27.77;42.02
62402;BME280;48440;51.224;22.506;2023-09-07T11:18:22;100190.06;;;27.85;42.04
62402;BME280;48440;51.224;22.506;2023-09-07T11:20:49;100195.41;;;27.90;42.11
62402;BME280;48440;51.224;22.506;2023-09-07T11:23:16;100199.13;;;27.82;42.09
62402;BME280;48440;51.224;22.506;2023-09-07T11:25:42;100205.06;;;27.80;41.26
62402;BME280;48440;51.224;22.506;2023-09-07T11:28:11;100201.00;;;27.78;41.09
62402;BME280;48440;51.224;22.506;2023-09-07T11:30:47;100200.41;;;27.72;41.23
62402;BME280;48440;51.224;22.506;2023-09-07T11:33:15;100202.34;;;27.59;41.98
62402;BME280;48440;51.224;22.506;2023-09-07T11:35:41;100205.94;;;27.48;42.09
62402;BME280;48440;51.224;22.506;2023-09-07T11:38:06;100203.56;;;27.37;42.06
62402;BME280;48440;51.224;22.506;2023-09-07T11:40:35;100202.41;;;27.26;42.55
62402;BME280;48440;51.224;22.506;2023-09-07T11:43:01;100196.19;;;27.09;42.90
62402;BME280;48440;51.224;22.506;2023-09-07T11:45:26;100191.41;;;26.97;43.12
62402;BME280;48440;51.224;22.506;2023-09-07T11:47:52;100194.56;;;26.87;42.66
62402;BME280;48440;51.224;22.506;2023-09-07T11:50:18;100194.91;;;26.85;42.62
62402;BME280;48440;51.224;22.506;2023-09-07T11:52:47;100197.34;;;26.87;42.71
62402;BME280;48440;51.224;22.506;2023-09-07T11:55:15;100193.41;;;26.88;42.86
62402;BME280;48440;51.224;22.506;2023-09-07T11:57:41;100191.94;;;26.90;43.41
62402;BME280;48440;51.224;22.506;2023-09-07T12:00:06;100186.34;;;26.90;43.32
62402;BME280;48440;51.224;22.506;2023-09-07T12:02:38;100181.13;;;26.89;43.70
62402;BME280;48440;51.224;22.506;2023-09-07T12:05:04;100184.59;;;26.86;43.70
62402;BME280;48440;51.224;22.506;2023-09-07T12:07:30;100189.56;;;26.80;43.74
62402;BME280;48440;51.224;22.506;2023-09-07T12:09:56;100195.34;;;26.75;42.94
62402;BME280;48440;51.224;22.506;2023-09-07T12:12:23;100189.72;;;26.63;41.54
62402;BME280;48440;51.224;22.506;2023-09-07T12:14:48;100179.56;;;26.46;41.04
62402;BME280;48440;51.224;22.506;2023-09-07T12:17:14;100190.59;;;26.34;41.64
62402;BME280;48440;51.224;22.506;2023-09-07T12:19:39;100176.84;;;26.29;41.51
62402;BME280;48440;51.224;22.506;2023-09-07T12:22:07;100183.66;;;26.19;40.51
62402;BME280;48440;51.224;22.506;2023-09-07T12:24:33;100175.56;;;26.26;41.34
62402;BME280;48440;51.224;22.506;2023-09-07T12:26:58;100177.53;;;26.26;42.79
62402;BME280;48440;51.224;22.506;2023-09-07T12:29:25;100180.53;;;26.21;42.68
62402;BME280;48440;51.224;22.506;2023-09-07T12:31:50;100169.59;;;26.16;42.19
62402;BME280;48440;51.224;22.506;2023-09-07T12:34:16;100169.28;;;26.17;42.67
62402;BME280;48440;51.224;22.506;2023-09-07T12:36:41;100170.75;;;26.15;42.54
62402;BME280;48440;51.224;22.506;2023-09-07T12:39:07;100176.16;;;26.11;42.36
62402;BME280;48440;51.224;22.506;2023-09-07T12:41:33;100169.31;;;26.09;42.49
62402;BME280;48440;51.224;22.506;2023-09-07T12:43:58;100168.53;;;25.99;41.98
62402;BME280;48440;51.224;22.506;2023-09-07T12:46:23;100168.13;;;25.89;40.86
62402;BME280;48440;51.224;22.506;2023-09-07T12:48:49;100160.63;;;25.89;41.47
62402;BME280;48440;51.224;22.506;2023-09-07T12:51:14;100165.53;;;25.84;41.13
62402;BME280;48440;51.224;22.506;2023-09-07T12:53:41;100169.81;;;25.81;41.63
62402;BME280;48440;51.224;22.506;2023-09-07T12:56:06;100165.88;;;25.82;41.50
62402;BME280;48440;51.224;22.506;2023-09-07T12:58:32;100163.09;;;25.82;41.36